Terminal Aerodrome Forecast
Issued by NWS Sioux Falls, SD

Home | Current Version | Previous Version | Graphics & Text | Print | Product List | Glossary Off
Versions: 1 2 3 4 5 6 7 8 9 10 11 12 13 14 15 16 17 18 19 20 21

000
FTUS43 KFSD 252320
TAFFSD
TAF
KFSD 252320Z 2600/2624 16008KT P6SM SCT050 BKN090
      TEMPO 2603/2605 4SM TSRA OVC035CB
     FM260900 14005KT 5SM BR BKN012
     FM261400 15007KT P6SM SCT012=

USA.gov is the U.S. government's official web portal to all federal, state and local government web resources and services.